Time;durP1;ratioP1;P1;durP2;ratioP2;P2;SDS_P1;SDS_P2;PMS_P1;PMS_P2;Temp;Humidity;BMP_temperature;BMP_pressure;BME280_temperature;BME280_humidity;BME280_pressure;Samples;Min_cycle;Max_cycle;Signal;HPM_P1;HPM_P2
2021/12/26 00:00:45;;;;;;;;;;;;;;;10.46;49.18;100598.84;1050503;28;613;-54
2021/12/26 00:01:35;;;;;;;;;;;;;;;10.46;48.81;100597.03;1050518;28;844;-55
2021/12/26 00:02:26;;;;;;;;;;;;;;;10.46;49.05;100599.69;1050385;28;677;-51
2021/12/26 00:03:16;;;;;;;;;;;;;;;10.48;48.74;100599.59;1050415;28;605;-53
2021/12/26 00:04:07;;;;;;;;;;;;;;;10.47;49.05;100596.09;1050327;28;874;-54
2021/12/26 00:04:57;;;;;;;;;;;;;;;10.47;49.00;100597.91;1049490;28;598;-53
2021/12/26 00:05:48;;;;;;;;;;;;;;;10.45;48.96;100592.66;1050514;28;934;-51
2021/12/26 00:06:38;;;;;;;;;;;;;;;10.46;49.00;100596.19;1046080;28;704;-50
2021/12/26 00:07:29;;;;;;;;;;;;;;;10.46;48.77;100598.84;1046002;28;839;-53
2021/12/26 00:08:19;;;;;;;;;;;;;;;10.45;48.79;100595.34;1045751;28;847;-49
2021/12/26 00:09:09;;;;;;;;;;;;;;;10.44;48.62;100590.97;1046594;28;704;-50
2021/12/26 00:10:00;;;;;;;;;;;;;;;10.42;48.43;100596.38;1051014;28;880;-50
2021/12/26 00:10:50;;;;;;;;;;;;;;;10.42;48.73;100590.22;1050353;28;1885;-48
2021/12/26 00:11:41;;;;;;;;;;;;;;;10.42;48.85;100596.38;1047000;28;700;-51
2021/12/26 00:12:31;;;;;;;;;;;;;;;10.42;48.60;100595.53;1046216;28;719;-51
2021/12/26 00:13:22;;;;;;;;;;;;;;;10.42;48.76;100591.06;1046262;28;2092;-53
2021/12/26 00:14:12;;;;;;;;;;;;;;;10.41;48.45;100586.69;1046266;28;860;-50
2021/12/26 00:15:02;;;;;;;;;;;;;;;10.40;48.54;100587.66;1046353;28;637;-51
2021/12/26 00:15:53;;;;;;;;;;;;;;;10.40;48.72;100586.78;1046341;28;693;-52
2021/12/26 00:16:44;;;;;;;;;;;;;;;10.38;48.57;100597.59;1046258;28;766;-50
2021/12/26 00:17:34;;;;;;;;;;;;;;;10.37;48.62;100589.69;1047596;28;653;-53
2021/12/26 00:18:24;;;;;;;;;;;;;;;10.37;48.55;100598.53;1046225;28;827;-52
2021/12/26 00:19:15;;;;;;;;;;;;;;;10.39;48.27;100593.09;1041756;28;676;-49
2021/12/26 00:20:05;;;;;;;;;;;;;;;10.36;47.85;100590.66;1042433;28;682;-49
2021/12/26 00:20:56;;;;;;;;;;;;;;;10.36;48.11;100590.66;1046734;28;848;-50
2021/12/26 00:21:48;;;;;;;;;;;;;;;10.37;48.36;100597.69;1045600;28;645;-51
2021/12/26 00:22:38;;;;;;;;;;;;;;;10.38;48.18;100591.41;1047353;28;849;-50
2021/12/26 00:23:28;;;;;;;;;;;;;;;10.37;47.91;100590.53;1046737;28;1794;-50
2021/12/26 00:24:19;;;;;;;;;;;;;;;10.36;48.27;100595.97;1047507;28;664;-49
2021/12/26 00:25:10;;;;;;;;;;;;;;;10.37;48.02;100587.88;1047219;28;901;-48
2021/12/26 00:26:00;;;;;;;;;;;;;;;10.36;48.21;100585.31;1047595;28;626;-50
2021/12/26 00:26:50;;;;;;;;;;;;;;;10.34;48.23;100581.91;1047278;28;910;-50
2021/12/26 00:27:41;;;;;;;;;;;;;;;10.35;48.29;100583.63;1047594;28;688;-48
2021/12/26 00:28:31;;;;;;;;;;;;;;;10.35;48.21;100580.94;1047420;28;652;-49
2021/12/26 00:29:22;;;;;;;;;;;;;;;10.35;48.29;100578.28;1047454;28;696;-49
2021/12/26 00:30:12;;;;;;;;;;;;;;;10.36;47.89;100580.00;1047375;28;684;-49
2021/12/26 00:31:03;;;;;;;;;;;;;;;10.35;47.87;100594.28;1046452;28;2099;-50
2021/12/26 00:31:53;;;;;;;;;;;;;;;10.34;47.63;100589.91;1046046;28;744;-51
2021/12/26 00:32:43;;;;;;;;;;;;;;;10.33;47.92;100582.84;1046281;28;684;-49
2021/12/26 00:33:34;;;;;;;;;;;;;;;10.32;48.00;100578.50;1046901;28;672;-49
2021/12/26 00:34:24;;;;;;;;;;;;;;;10.33;47.90;100585.53;1046131;28;681;-49
2021/12/26 00:35:15;;;;;;;;;;;;;;;10.33;48.06;100580.19;1046135;28;918;-47
2021/12/26 00:36:05;;;;;;;;;;;;;;;10.32;48.10;100586.47;1046259;28;622;-48
2021/12/26 00:36:55;;;;;;;;;;;;;;;10.33;48.15;100585.53;1046290;28;649;-50
2021/12/26 00:37:46;;;;;;;;;;;;;;;10.33;47.94;100580.19;1046176;28;892;-52
2021/12/26 00:38:36;;;;;;;;;;;;;;;10.32;47.82;100583.81;1046298;28;684;-49
2021/12/26 00:39:27;;;;;;;;;;;;;;;10.31;47.67;100579.44;1046153;28;806;-49
2021/12/26 00:40:18;;;;;;;;;;;;;;;10.31;47.76;100579.44;1046170;28;1447;-48
2021/12/26 00:41:09;;;;;;;;;;;;;;;10.30;48.00;100573.25;1047541;28;1896;-51
2021/12/26 00:41:59;;;;;;;;;;;;;;;10.29;47.99;100581.34;1046218;28;688;-50
2021/12/26 00:42:49;;;;;;;;;;;;;;;10.28;47.73;100575.19;1046353;28;641;-51
2021/12/26 00:43:40;;;;;;;;;;;;;;;10.27;48.12;100580.59;1046100;28;836;-51
2021/12/26 00:44:32;;;;;;;;;;;;;;;10.27;48.09;100583.25;1046202;28;610;-51
2021/12/26 00:45:22;;;;;;;;;;;;;;;10.27;47.88;100572.63;1047260;28;660;-50
2021/12/26 00:46:13;;;;;;;;;;;;;;;10.27;47.74;100577.94;1046012;28;1133;-51
2021/12/26 00:47:03;;;;;;;;;;;;;;;10.27;47.83;100575.28;1046271;28;625;-51
2021/12/26 00:47:54;;;;;;;;;;;;;;;10.25;47.72;100582.50;1046227;28;848;-49
2021/12/26 00:48:44;;;;;;;;;;;;;;;10.25;47.65;100577.19;1046204;28;839;-50
2021/12/26 00:49:34;;;;;;;;;;;;;;;10.24;47.40;100579.00;1044110;28;1837;-51
2021/12/26 00:50:25;;;;;;;;;;;;;;;10.24;47.32;100575.47;1045822;28;696;-48
2021/12/26 00:51:15;;;;;;;;;;;;;;;10.24;47.58;100580.81;1050199;28;1953;-52
2021/12/26 00:52:06;;;;;;;;;;;;;;;10.25;47.50;100587.84;1050178;28;861;-51
2021/12/26 00:52:56;;;;;;;;;;;;;;;10.22;47.62;100578.25;1050337;28;637;-52
2021/12/26 00:53:47;;;;;;;;;;;;;;;10.22;47.53;100580.06;1050264;28;837;-51
2021/12/26 00:54:37;;;;;;;;;;;;;;;10.22;47.39;100580.06;1050292;28;637;-50
2021/12/26 00:55:27;;;;;;;;;;;;;;;10.22;47.41;100583.56;1050159;28;1354;-48
2021/12/26 00:56:19;;;;;;;;;;;;;;;10.22;47.62;100577.38;1050097;28;934;-51
2021/12/26 00:57:10;;;;;;;;;;;;;;;10.23;47.40;100584.44;1049020;28;809;-47
2021/12/26 00:58:00;;;;;;;;;;;;;;;10.22;47.33;100580.06;1050260;28;672;-47
2021/12/26 00:58:50;;;;;;;;;;;;;;;10.20;47.58;100574.88;1050366;28;652;-51
2021/12/26 00:59:41;;;;;;;;;;;;;;;10.20;47.58;100579.34;1047001;28;1602;-49
2021/12/26 01:00:31;;;;;;;;;;;;;;;10.20;47.67;100574.88;1046158;28;649;-50
2021/12/26 01:01:22;;;;;;;;;;;;;;;10.20;47.56;100580.19;1046069;28;680;-49
2021/12/26 01:02:12;;;;;;;;;;;;;;;10.20;47.42;100576.66;1046078;28;836;-48
2021/12/26 01:03:02;;;;;;;;;;;;;;;10.22;47.40;100582.72;1046119;28;653;-53
2021/12/26 01:03:53;;;;;;;;;;;;;;;10.20;47.60;100579.34;1046058;28;704;-50
2021/12/26 01:04:43;;;;;;;;;;;;;;;10.21;47.40;100581.03;1046087;28;838;-49
2021/12/26 01:05:34;;;;;;;;;;;;;;;10.19;47.29;100572.31;1045934;28;630;-53
2021/12/26 01:06:26;;;;;;;;;;;;;;;10.18;47.28;100575.88;1045912;28;648;-52
2021/12/26 01:07:39;;;;;;;;;;;;;;;10.18;47.35;100571.41;1047197;28;715;-51
2021/12/26 01:08:31;;;;;;;;;;;;;;;10.17;47.91;100568.84;1047031;28;677;-49
2021/12/26 01:09:26;;;;;;;;;;;;;;;10.18;47.69;100567.91;1047413;28;1356;-52
2021/12/26 01:10:19;;;;;;;;;;;;;;;10.17;47.56;100568.84;1046540;28;1014;-52
2021/12/26 01:11:16;;;;;;;;;;;;;;;10.18;47.73;100576.75;1046600;28;1947;-51
2021/12/26 01:12:12;;;;;;;;;;;;;;;10.18;47.78;100581.22;1046637;28;718;-52
2021/12/26 01:13:12;;;;;;;;;;;;;;;10.16;47.76;100585.78;1046704;28;750;-51
2021/12/26 01:14:04;;;;;;;;;;;;;;;10.15;47.73;100586.72;1042974;28;646;-48
2021/12/26 01:14:59;;;;;;;;;;;;;;;10.14;47.36;100580.56;1042194;28;880;-53
2021/12/26 01:15:52;;;;;;;;;;;;;;;10.15;47.44;100581.41;1046573;28;661;-49
2021/12/26 01:16:44;;;;;;;;;;;;;;;10.15;47.52;100576.94;1047213;28;930;-51
2021/12/26 01:17:35;;;;;;;;;;;;;;;10.17;47.35;100582.16;1047246;28;660;-53
2021/12/26 01:18:25;;;;;;;;;;;;;;;10.15;47.50;100574.28;1047199;28;615;-51
2021/12/26 01:19:19;;;;;;;;;;;;;;;10.15;47.57;100570.75;1047750;28;1515;-53
2021/12/26 01:20:11;;;;;;;;;;;;;;;10.15;47.50;100581.41;1048896;28;669;-53
2021/12/26 01:21:09;;;;;;;;;;;;;;;10.14;47.62;100577.03;1049995;28;1606;-52
2021/12/26 01:22:00;;;;;;;;;;;;;;;10.14;47.88;100577.03;1046626;28;798;-51
2021/12/26 01:22:50;;;;;;;;;;;;;;;10.13;47.47;100575.34;1046717;28;645;-52
2021/12/26 01:23:40;;;;;;;;;;;;;;;10.14;47.36;100574.38;1046129;28;648;-51
2021/12/26 01:24:31;;;;;;;;;;;;;;;10.13;47.61;100578.00;1046660;28;684;-54
2021/12/26 01:25:21;;;;;;;;;;;;;;;10.10;47.38;100569.25;1045844;28;901;-53
2021/12/26 01:26:12;;;;;;;;;;;;;;;10.10;47.54;100577.25;1046098;28;692;-52
2021/12/26 01:27:02;;;;;;;;;;;;;;;10.12;47.40;100576.28;1046014;28;605;-53
2021/12/26 01:27:53;;;;;;;;;;;;;;;10.12;47.38;100570.97;1046113;28;727;-51
2021/12/26 01:28:43;;;;;;;;;;;;;;;10.12;47.55;100573.63;1046648;28;844;-54
2021/12/26 01:29:36;;;;;;;;;;;;;;;10.09;47.71;100580.84;1041664;28;871;-53
2021/12/26 01:30:27;;;;;;;;;;;;;;;10.11;47.47;100586.09;1042162;28;625;-52
2021/12/26 01:31:20;;;;;;;;;;;;;;;10.11;47.34;100583.41;1046483;28;1937;-48
2021/12/26 01:32:11;;;;;;;;;;;;;;;10.10;47.46;100590.56;1045975;28;728;-52
2021/12/26 01:33:01;;;;;;;;;;;;;;;10.11;47.59;100578.09;1045720;28;685;-54
2021/12/26 01:33:51;;;;;;;;;;;;;;;10.13;47.82;100588.66;1041577;28;781;-51
2021/12/26 01:34:42;;;;;;;;;;;;;;;10.10;47.53;100573.72;1042141;28;762;-51
2021/12/26 01:35:32;;;;;;;;;;;;;;;10.10;47.56;100579.91;1046433;28;628;-53
2021/12/26 01:36:23;;;;;;;;;;;;;;;10.07;47.78;100580.09;1045995;28;664;-52
2021/12/26 01:37:13;;;;;;;;;;;;;;;10.08;47.57;100572.97;1045961;28;617;-53
2021/12/26 01:38:03;;;;;;;;;;;;;;;10.08;47.97;100581.81;1045900;28;769;-52
2021/12/26 01:38:56;;;;;;;;;;;;;;;10.07;47.97;100580.09;1046270;28;1847;-52
2021/12/26 01:39:47;;;;;;;;;;;;;;;10.07;47.96;100577.44;1047584;28;971;-54
2021/12/26 01:40:39;;;;;;;;;;;;;;;10.05;47.80;100571.38;1045856;28;1647;-51
2021/12/26 01:41:30;;;;;;;;;;;;;;;10.05;47.78;100576.69;1045307;28;716;-53
2021/12/26 01:42:20;;;;;;;;;;;;;;;10.06;47.90;100581.06;1047063;28;625;-52
2021/12/26 01:43:11;;;;;;;;;;;;;;;10.06;47.89;100583.72;1045942;28;673;-52
2021/12/26 01:44:04;;;;;;;;;;;;;;;10.06;47.71;100589.03;1045925;28;741;-52
2021/12/26 01:44:55;;;;;;;;;;;;;;;10.06;47.86;100577.53;1045885;28;653;-51
2021/12/26 01:45:45;;;;;;;;;;;;;;;10.06;47.84;100582.88;1045941;28;656;-55
2021/12/26 01:46:35;;;;;;;;;;;;;;;10.05;47.84;100581.16;1046981;28;1188;-54
2021/12/26 01:47:26;;;;;;;;;;;;;;;10.05;48.06;100582.00;1047189;28;605;-53
2021/12/26 01:48:17;;;;;;;;;;;;;;;10.06;47.90;100577.53;1047202;28;951;-54
2021/12/26 01:49:07;;;;;;;;;;;;;;;10.06;47.79;100577.53;1046357;28;975;-53
2021/12/26 01:49:58;;;;;;;;;;;;;;;10.06;47.95;100583.72;1046191;28;1625;-53
2021/12/26 01:50:48;;;;;;;;;;;;;;;10.05;47.75;100583.81;1046539;28;641;-52
2021/12/26 01:51:39;;;;;;;;;;;;;;;10.05;47.78;100581.16;1045482;28;653;-53
2021/12/26 01:52:29;;;;;;;;;;;;;;;10.03;48.02;100583.91;1040816;28;778;-54
2021/12/26 01:53:22;;;;;;;;;;;;;;;10.04;47.80;100580.31;1041551;28;664;-54
2021/12/26 01:54:12;;;;;;;;;;;;;;;10.04;48.04;100584.78;1045882;28;692;-52
2021/12/26 01:55:22;;;;;;;;;;;;;;;10.04;48.17;100585.63;1046422;28;665;-54
2021/12/26 01:56:12;;;;;;;;;;;;;;;10.05;47.89;100581.16;1045286;28;682;-54
2021/12/26 01:57:02;;;;;;;;;;;;;;;10.03;48.14;100581.25;1046479;28;739;-54
2021/12/26 01:57:53;;;;;;;;;;;;;;;10.05;48.02;100576.69;1047191;28;774;-54
2021/12/26 01:58:43;;;;;;;;;;;;;;;10.05;48.00;100579.34;1046781;28;1932;-53
2021/12/26 01:59:34;;;;;;;;;;;;;;;10.06;48.02;100577.53;1045942;28;755;-51
2021/12/26 02:00:25;;;;;;;;;;;;;;;10.04;47.73;100569.66;1046520;28;668;-54
2021/12/26 02:01:15;;;;;;;;;;;;;;;10.03;47.88;100570.59;1046498;28;640;-53
2021/12/26 02:02:06;;;;;;;;;;;;;;;10.03;48.02;100573.28;1045918;28;636;-54
2021/12/26 02:02:56;;;;;;;;;;;;;;;10.05;48.04;100567.84;1046375;28;854;-54
2021/12/26 02:03:46;;;;;;;;;;;;;;;10.05;48.34;100563.38;1045836;28;626;-54
2021/12/26 02:04:37;;;;;;;;;;;;;;;10.07;48.00;100571.25;1046561;28;695;-54
2021/12/26 02:05:27;;;;;;;;;;;;;;;10.05;47.61;100566.03;1045787;28;669;-54
2021/12/26 02:06:18;;;;;;;;;;;;;;;10.04;48.18;100563.47;1045971;28;701;-54
2021/12/26 02:07:08;;;;;;;;;;;;;;;10.04;47.83;100561.66;1041426;28;903;-53
2021/12/26 02:07:58;;;;;;;;;;;;;;;10.04;47.97;100563.47;1042182;28;672;-54
2021/12/26 02:08:50;;;;;;;;;;;;;;;10.04;47.88;100561.66;1046420;28;1140;-54
2021/12/26 02:09:40;;;;;;;;;;;;;;;10.06;48.09;100561.56;1041577;28;645;-53
2021/12/26 02:10:31;;;;;;;;;;;;;;;10.06;47.94;100561.56;1042246;28;2016;-54
2021/12/26 02:11:21;;;;;;;;;;;;;;;10.07;48.01;100569.44;1049741;28;1981;-53
2021/12/26 02:12:12;;;;;;;;;;;;;;;10.06;48.13;100561.56;1049992;28;665;-54
2021/12/26 02:13:02;;;;;;;;;;;;;;;10.06;47.98;100562.41;1050014;28;838;-54
2021/12/26 02:13:53;;;;;;;;;;;;;;;10.06;48.00;100566.88;1050012;28;947;-52
2021/12/26 02:14:43;;;;;;;;;;;;;;;10.05;48.16;100566.03;1050065;28;637;-51
2021/12/26 02:15:33;;;;;;;;;;;;;;;10.06;48.27;100566.88;1049890;28;755;-54
2021/12/26 02:16:24;;;;;;;;;;;;;;;10.05;48.09;100562.53;1049982;28;704;-50
2021/12/26 02:17:14;;;;;;;;;;;;;;;10.05;48.04;100562.53;1049895;28;753;-54
2021/12/26 02:18:05;;;;;;;;;;;;;;;10.05;48.19;100566.03;1049971;28;806;-55
2021/12/26 02:18:56;;;;;;;;;;;;;;;10.04;47.89;100564.34;1048978;28;704;-52
2021/12/26 02:19:49;;;;;;;;;;;;;;;10.03;48.25;100565.28;1049956;28;1220;-54
2021/12/26 02:22:45;;;;;;;;;;;;;;;10.03;48.14;100561.81;1049804;28;2050;-51
2021/12/26 02:23:54;;;;;;;;;;;;;;;10.02;47.89;100555.63;1048820;28;844;-49
2021/12/26 02:27:56;;;;;;;;;;;;;;;9.99;48.20;100561.16;1048674;28;953;-54
2021/12/26 02:28:47;;;;;;;;;;;;;;;10.01;48.00;100556.56;1049983;28;641;-54
2021/12/26 02:29:37;;;;;;;;;;;;;;;10.01;48.32;100558.38;1045619;28;697;-53
2021/12/26 02:30:28;;;;;;;;;;;;;;;10.00;48.45;100560.19;1044754;28;1868;-54
2021/12/26 02:31:18;;;;;;;;;;;;;;;10.00;48.10;100554.00;1049841;28;1944;-53
2021/12/26 02:32:09;;;;;;;;;;;;;;;10.00;48.52;100552.22;1049826;28;850;-52
2021/12/26 02:33:03;;;;;;;;;;;;;;;10.02;47.98;100550.31;1049995;28;626;-53
2021/12/26 02:33:54;;;;;;;;;;;;;;;10.00;48.39;100552.22;1048878;28;708;-55
2021/12/26 02:34:44;;;;;;;;;;;;;;;10.00;48.10;100549.53;1050024;28;641;-53
2021/12/26 02:35:34;;;;;;;;;;;;;;;10.00;48.23;100544.22;1045608;28;676;-53
2021/12/26 02:36:25;;;;;;;;;;;;;;;10.01;48.27;100547.75;1045386;28;709;-54
2021/12/26 02:37:15;;;;;;;;;;;;;;;10.02;48.36;100542.31;1049771;28;692;-51
2021/12/26 02:38:06;;;;;;;;;;;;;;;10.01;48.41;100540.59;1049892;28;777;-53
2021/12/26 02:38:56;;;;;;;;;;;;;;;10.01;48.23;100545.94;1045629;28;688;-54
2021/12/26 02:39:47;;;;;;;;;;;;;;;10.01;48.28;100548.59;1041446;28;685;-54
2021/12/26 02:40:37;;;;;;;;;;;;;;;10.00;48.30;100546.88;1041362;28;1523;-50
2021/12/26 02:41:28;;;;;;;;;;;;;;;10.01;47.98;100545.94;1041865;28;680;-54
2021/12/26 02:42:18;;;;;;;;;;;;;;;10.01;48.33;100548.59;1045506;28;728;-55
2021/12/26 02:43:08;;;;;;;;;;;;;;;10.02;48.19;100549.44;1045740;28;574;-50
2021/12/26 02:43:59;;;;;;;;;;;;;;;9.99;48.01;100550.50;1046455;28;739;-53
2021/12/26 02:44:49;;;;;;;;;;;;;;;9.99;48.09;100545.19;1045180;28;859;-53
2021/12/26 02:45:40;;;;;;;;;;;;;;;9.98;48.08;100543.47;1045747;28;641;-53
2021/12/26 02:46:30;;;;;;;;;;;;;;;9.96;48.50;100542.72;1045678;28;1149;-48
2021/12/26 02:47:21;;;;;;;;;;;;;;;9.99;47.79;100539.00;1045743;28;633;-53
2021/12/26 02:48:11;;;;;;;;;;;;;;;10.00;48.33;100540.72;1045815;28;669;-51
2021/12/26 02:49:01;;;;;;;;;;;;;;;9.98;48.11;100535.47;1045668;28;783;-51
2021/12/26 02:49:52;;;;;;;;;;;;;;;9.97;48.34;100535.59;1045736;28;1579;-49
2021/12/26 02:50:42;;;;;;;;;;;;;;;9.98;48.07;100539.94;1046320;28;809;-51
2021/12/26 02:51:33;;;;;;;;;;;;;;;9.97;48.23;100538.25;1046447;28;650;-52
2021/12/26 02:52:23;;;;;;;;;;;;;;;9.96;48.33;100531.22;1046334;28;680;-53
2021/12/26 02:53:15;;;;;;;;;;;;;;;9.96;48.29;100539.19;1046133;28;900;-50
2021/12/26 02:54:05;;;;;;;;;;;;;;;9.95;48.43;100532.16;1045155;28;624;-51
2021/12/26 02:54:56;;;;;;;;;;;;;;;9.95;48.33;100537.50;1046238;28;721;-51
2021/12/26 02:55:46;;;;;;;;;;;;;;;9.95;48.08;100535.69;1046425;28;647;-51
2021/12/26 02:56:36;;;;;;;;;;;;;;;9.92;48.21;100527.91;1046358;28;641;-50
2021/12/26 02:57:27;;;;;;;;;;;;;;;9.94;47.96;100526.00;1047797;28;1933;-49
2021/12/26 02:58:17;;;;;;;;;;;;;;;9.93;48.15;100526.94;1046266;28;590;-50
2021/12/26 02:59:08;;;;;;;;;;;;;;;9.93;48.08;100523.44;1045709;28;912;-51
2021/12/26 02:59:58;;;;;;;;;;;;;;;9.95;48.33;100529.50;1045799;28;669;-52
2021/12/26 03:00:49;;;;;;;;;;;;;;;9.93;48.10;100518.97;1045745;28;828;-49
2021/12/26 03:01:39;;;;;;;;;;;;;;;9.91;48.29;100523.53;1045694;28;638;-50
2021/12/26 03:02:29;;;;;;;;;;;;;;;9.93;48.20;100518.09;1045782;28;1918;-49
2021/12/26 03:03:20;;;;;;;;;;;;;;;9.91;47.59;100526.19;1046165;28;850;-49
2021/12/26 03:04:10;;;;;;;;;;;;;;;9.92;48.31;100525.25;1045639;28;635;-52
2021/12/26 03:05:01;;;;;;;;;;;;;;;9.92;48.14;100527.91;1045852;28;652;-52
2021/12/26 03:05:51;;;;;;;;;;;;;;;9.92;48.13;100525.25;1045837;28;618;-52
2021/12/26 03:07:32;;;;;;;;;;;;;;;9.92;48.14;100522.56;1045221;28;908;-52
2021/12/26 03:08:22;;;;;;;;;;;;;;;9.93;47.76;100518.97;1045650;28;620;-52
2021/12/26 03:09:13;;;;;;;;;;;;;;;9.93;47.93;100520.78;1044712;28;634;-50
2021/12/26 03:10:03;;;;;;;;;;;;;;;9.91;47.90;100515.53;1045667;28;665;-52
2021/12/26 03:10:54;;;;;;;;;;;;;;;9.92;48.19;100511.94;1045773;28;782;-52
2021/12/26 03:11:46;;;;;;;;;;;;;;;9.93;47.96;100513.63;1045027;28;766;-50
2021/12/26 03:12:40;;;;;;;;;;;;;;;9.95;48.10;100514.38;1044750;28;662;-53
2021/12/26 03:13:30;;;;;;;;;;;;;;;9.94;48.02;100523.34;1045068;28;652;-53
2021/12/26 03:14:21;;;;;;;;;;;;;;;9.95;48.02;100519.72;1045697;28;680;-50
2021/12/26 03:15:11;;;;;;;;;;;;;;;9.95;47.75;100517.06;1046322;28;645;-53
2021/12/26 03:16:01;;;;;;;;;;;;;;;9.95;47.83;100519.72;1046221;28;770;-50
2021/12/26 03:16:52;;;;;;;;;;;;;;;9.96;48.13;100513.44;1046309;28;691;-52
2021/12/26 03:17:42;;;;;;;;;;;;;;;9.96;48.28;100523.22;1048888;28;935;-53
2021/12/26 03:18:33;;;;;;;;;;;;;;;9.97;47.86;100520.47;1050110;28;1086;-53
2021/12/26 03:19:23;;;;;;;;;;;;;;;9.97;47.94;100531.13;1046350;28;644;-49
2021/12/26 03:20:13;;;;;;;;;;;;;;;9.99;47.92;100529.19;1046178;28;875;-54
2021/12/26 03:21:04;;;;;;;;;;;;;;;9.97;47.89;100525.78;1046254;28;618;-52
2021/12/26 03:21:54;;;;;;;;;;;;;;;9.96;48.06;100523.22;1046344;28;668;-54
2021/12/26 03:22:45;;;;;;;;;;;;;;;9.95;48.04;100527.69;1046353;28;719;-54
2021/12/26 03:23:35;;;;;;;;;;;;;;;9.95;47.98;100526.84;1046239;28;729;-54
2021/12/26 03:24:26;;;;;;;;;;;;;;;9.95;48.05;100529.50;1046154;28;761;-53
2021/12/26 03:25:16;;;;;;;;;;;;;;;9.95;47.97;100527.69;1046233;28;992;-54
2021/12/26 03:26:06;;;;;;;;;;;;;;;9.93;48.19;100528.75;1045065;28;734;-52
2021/12/26 03:26:57;;;;;;;;;;;;;;;9.94;48.05;100533.97;1047155;28;1958;-53
2021/12/26 03:27:47;;;;;;;;;;;;;;;9.93;48.13;100528.75;1049887;28;649;-51
2021/12/26 03:28:38;;;;;;;;;;;;;;;9.93;48.14;100520.78;1049860;28;715;-51
2021/12/26 03:29:28;;;;;;;;;;;;;;;9.95;47.73;100521.53;1045042;28;627;-48
2021/12/26 03:30:18;;;;;;;;;;;;;;;9.94;48.21;100526.00;1045558;28;855;-54
2021/12/26 03:31:09;;;;;;;;;;;;;;;9.94;48.10;100525.13;1045613;28;1901;-52
2021/12/26 03:31:59;;;;;;;;;;;;;;;9.93;48.28;100512.78;1045661;28;742;-53
2021/12/26 03:32:50;;;;;;;;;;;;;;;9.93;48.27;100523.44;1045717;28;773;-51
2021/12/26 03:33:40;;;;;;;;;;;;;;;9.92;48.13;100519.91;1045697;28;672;-53
2021/12/26 03:34:31;;;;;;;;;;;;;;;9.91;47.98;100518.22;1046912;28;1927;-54
2021/12/26 03:35:21;;;;;;;;;;;;;;;9.88;48.28;100510.44;1046241;28;886;-53
2021/12/26 03:36:11;;;;;;;;;;;;;;;9.88;48.16;100515.75;1045686;28;641;-53
2021/12/26 03:37:02;;;;;;;;;;;;;;;9.89;48.11;100512.13;1045734;28;922;-53
2021/12/26 03:37:52;;;;;;;;;;;;;;;9.90;48.15;100513.84;1045755;28;610;-53
2021/12/26 03:38:43;;;;;;;;;;;;;;;9.88;48.02;100505.09;1045553;28;689;-54
2021/12/26 03:39:33;;;;;;;;;;;;;;;9.89;48.02;100508.63;1045722;28;613;-54
2021/12/26 03:40:24;;;;;;;;;;;;;;;9.90;48.15;100512.97;1045524;28;992;-52
2021/12/26 03:41:14;;;;;;;;;;;;;;;9.88;47.96;100505.09;1045637;28;847;-53
2021/12/26 03:42:04;;;;;;;;;;;;;;;9.88;47.91;100502.44;1045600;28;609;-52
2021/12/26 03:42:55;;;;;;;;;;;;;;;9.89;48.25;100504.16;1045649;28;1964;-54
2021/12/26 03:43:46;;;;;;;;;;;;;;;9.90;47.95;100502.34;1050445;28;613;-52
2021/12/26 03:44:36;;;;;;;;;;;;;;;9.90;48.23;100497.88;1047985;28;722;-50
2021/12/26 03:45:27;;;;;;;;;;;;;;;9.89;48.37;100498.81;1050267;28;668;-51
2021/12/26 03:46:17;;;;;;;;;;;;;;;9.92;47.89;100503.09;1050296;28;1132;-53
2021/12/26 03:47:08;;;;;;;;;;;;;;;9.95;48.12;100500.22;1050280;28;699;-52
2021/12/26 03:47:58;;;;;;;;;;;;;;;9.94;48.02;100502.03;1050447;28;644;-54
2021/12/26 03:48:48;;;;;;;;;;;;;;;9.95;48.16;100501.09;1050428;28;633;-50
2021/12/26 03:49:39;;;;;;;;;;;;;;;9.97;47.92;100509.81;1049034;28;1776;-52
2021/12/26 03:50:30;;;;;;;;;;;;;;;9.98;48.18;100510.66;1045644;28;672;-50
2021/12/26 03:51:21;;;;;;;;;;;;;;;9.97;47.99;100500.97;1044012;28;1894;-50
2021/12/26 03:52:11;;;;;;;;;;;;;;;9.97;48.04;100503.63;1045584;28;700;-53
2021/12/26 03:53:02;;;;;;;;;;;;;;;9.93;48.17;100502.13;1045989;28;1886;-54
2021/12/26 03:53:52;;;;;;;;;;;;;;;9.93;48.25;100504.78;1046292;28;637;-52
2021/12/26 03:54:43;;;;;;;;;;;;;;;9.92;48.19;100501.28;1045640;28;611;-53
2021/12/26 03:55:33;;;;;;;;;;;;;;;9.93;47.91;100510.97;1046095;28;1028;-50
2021/12/26 03:56:23;;;;;;;;;;;;;;;9.90;48.23;100503.19;1046002;28;680;-53
2021/12/26 03:57:14;;;;;;;;;;;;;;;9.90;48.30;100500.53;1046356;28;652;-53
2021/12/26 03:58:04;;;;;;;;;;;;;;;9.92;48.05;100495.97;1046387;28;673;-54
2021/12/26 03:58:55;;;;;;;;;;;;;;;9.93;47.96;100502.13;1046201;28;748;-53
2021/12/26 03:59:45;;;;;;;;;;;;;;;9.93;48.06;100496.81;1046259;28;724;-52
2021/12/26 04:00:35;;;;;;;;;;;;;;;9.91;47.90;100499.56;1046353;28;676;-54
2021/12/26 04:01:26;;;;;;;;;;;;;;;9.90;48.01;100502.34;1046649;28;1923;-50
2021/12/26 04:02:16;;;;;;;;;;;;;;;9.90;47.94;100499.69;1046238;28;873;-52
2021/12/26 04:03:07;;;;;;;;;;;;;;;9.89;48.18;100498.81;1046414;28;629;-52
2021/12/26 04:03:57;;;;;;;;;;;;;;;9.91;47.98;100496.06;1046300;28;875;-54
2021/12/26 04:04:48;;;;;;;;;;;;;;;9.91;48.13;100499.56;1046368;28;630;-54
2021/12/26 04:05:38;;;;;;;;;;;;;;;9.91;48.11;100496.06;1046466;28;724;-54
2021/12/26 04:06:28;;;;;;;;;;;;;;;9.90;48.05;100492.53;1046939;28;644;-53
2021/12/26 04:07:19;;;;;;;;;;;;;;;9.88;48.15;100499.78;1046302;28;747;-53
2021/12/26 04:08:09;;;;;;;;;;;;;;;9.87;48.40;100489.22;1046269;28;927;-52
2021/12/26 04:09:00;;;;;;;;;;;;;;;9.88;48.02;100498.91;1046414;28;633;-50
2021/12/26 04:09:50;;;;;;;;;;;;;;;9.87;48.04;100490.09;1046367;28;656;-49
2021/12/26 04:10:40;;;;;;;;;;;;;;;9.86;48.28;100492.84;1046360;28;700;-54
2021/12/26 04:11:31;;;;;;;;;;;;;;;9.84;48.14;100492.97;1047451;28;1769;-51
2021/12/26 04:12:22;;;;;;;;;;;;;;;9.84;48.22;100495.66;1050293;28;797;-54
2021/12/26 04:13:12;;;;;;;;;;;;;;;9.83;47.93;100496.59;1049479;28;707;-52
2021/12/26 04:14:02;;;;;;;;;;;;;;;9.83;48.26;100488.63;1046120;28;929;-52
2021/12/26 04:14:53;;;;;;;;;;;;;;;9.84;48.25;100490.31;1045563;28;653;-53
2021/12/26 04:15:43;;;;;;;;;;;;;;;9.86;48.02;100491.03;1050493;28;772;-53
2021/12/26 04:16:34;;;;;;;;;;;;;;;9.85;48.11;100489.38;1050404;28;739;-50
2021/12/26 04:17:24;;;;;;;;;;;;;;;9.85;47.89;100489.38;1050398;28;633;-52
2021/12/26 04:18:14;;;;;;;;;;;;;;;9.87;48.01;100486.56;1050289;28;613;-49
2021/12/26 04:19:05;;;;;;;;;;;;;;;9.86;47.82;100483.06;1050370;28;619;-50
2021/12/26 04:19:55;;;;;;;;;;;;;;;9.88;48.08;100483.81;1046058;28;652;-52
2021/12/26 04:20:46;;;;;;;;;;;;;;;9.90;47.79;100476.56;1045953;28;857;-53
2021/12/26 04:21:36;;;;;;;;;;;;;;;9.89;47.72;100479.34;1050259;28;719;-56
2021/12/26 04:22:27;;;;;;;;;;;;;;;9.87;48.05;100475.94;1050373;28;616;-50
2021/12/26 04:23:17;;;;;;;;;;;;;;;9.87;47.66;100479.44;1050232;28;743;-51
2021/12/26 04:24:07;;;;;;;;;;;;;;;9.88;47.87;100478.50;1046335;28;1447;-48
2021/12/26 04:24:58;;;;;;;;;;;;;;;9.90;47.59;100476.56;1046334;28;649;-53
2021/12/26 04:25:48;;;;;;;;;;;;;;;9.90;48.09;100479.25;1046234;28;708;-53
2021/12/26 04:26:42;;;;;;;;;;;;;;;9.91;48.01;100478.28;1046307;28;864;-49
2021/12/26 04:27:32;;;;;;;;;;;;;;;9.91;47.77;100488.94;1046179;28;786;-49
2021/12/26 04:28:23;;;;;;;;;;;;;;;9.89;47.95;100477.53;1046283;28;736;-46
2021/12/26 04:29:13;;;;;;;;;;;;;;;9.89;48.03;100482.00;1046241;28;692;-51
2021/12/26 04:30:03;;;;;;;;;;;;;;;9.89;47.82;100480.19;1046237;28;623;-47
2021/12/26 04:30:54;;;;;;;;;;;;;;;9.89;47.57;100477.53;1046233;28;850;-51
2021/12/26 04:31:44;;;;;;;;;;;;;;;9.87;47.82;100478.59;1050240;28;1792;-50
2021/12/26 04:32:35;;;;;;;;;;;;;;;9.87;48.04;100476.78;1051029;28;668;-50
2021/12/26 04:33:25;;;;;;;;;;;;;;;9.84;47.99;100465.53;1043346;28;1958;-51
2021/12/26 04:34:16;;;;;;;;;;;;;;;9.87;47.67;100467.94;1042899;28;621;-53
2021/12/26 04:35:06;;;;;;;;;;;;;;;9.87;47.58;100471.47;1042777;28;680;-50
2021/12/26 04:35:56;;;;;;;;;;;;;;;9.88;47.86;100470.50;1042971;28;617;-49